sensor_id;sensor_type;location;lat;lon;timestamp;pressure;altitude;pressure_sealevel;temperature
19061;BMP280;9663;48.996;8.334;2023-05-10T00:02:08;99685.19;;;19.40
19061;BMP280;9663;48.996;8.334;2023-05-10T00:04:34;99683.53;;;19.39
19061;BMP280;9663;48.996;8.334;2023-05-10T00:06:59;99688.50;;;19.42
19061;BMP280;9663;48.996;8.334;2023-05-10T00:09:25;99687.56;;;19.44
19061;BMP280;9663;48.996;8.334;2023-05-10T00:11:51;99688.31;;;19.46
19061;BMP280;9663;48.996;8.334;2023-05-10T00:14:17;99692.38;;;19.50
19061;BMP280;9663;48.996;8.334;2023-05-10T00:16:42;99690.56;;;19.52
19061;BMP280;9663;48.996;8.334;2023-05-10T00:19:08;99697.44;;;19.52
19061;BMP280;9663;48.996;8.334;2023-05-10T00:21:34;99693.13;;;19.52
19061;BMP280;9663;48.996;8.334;2023-05-10T00:24:00;99694.06;;;19.51
19061;BMP280;9663;48.996;8.334;2023-05-10T00:26:25;99693.31;;;19.49
19061;BMP280;9663;48.996;8.334;2023-05-10T00:28:51;99693.44;;;19.46
19061;BMP280;9663;48.996;8.334;2023-05-10T00:31:17;99696.03;;;19.46
19061;BMP280;9663;48.996;8.334;2023-05-10T00:33:43;99708.13;;;19.44
19061;BMP280;9663;48.996;8.334;2023-05-10T00:36:09;99689.44;;;19.41
19061;BMP280;9663;48.996;8.334;2023-05-10T00:38:35;99708.25;;;19.41
19061;BMP280;9663;48.996;8.334;2023-05-10T00:41:00;99705.84;;;19.38
19061;BMP280;9663;48.996;8.334;2023-05-10T00:43:26;99705.16;;;19.35
19061;BMP280;9663;48.996;8.334;2023-05-10T00:45:52;99714.63;;;19.34
19061;BMP280;9663;48.996;8.334;2023-05-10T00:48:18;99708.69;;;19.32
19061;BMP280;9663;48.996;8.334;2023-05-10T00:50:45;99718.06;;;19.33
19061;BMP280;9663;48.996;8.334;2023-05-10T00:53:11;99717.31;;;19.31
19061;BMP280;9663;48.996;8.334;2023-05-10T00:55:37;99716.47;;;19.31
19061;BMP280;9663;48.996;8.334;2023-05-10T00:58:04;99702.84;;;19.29
19061;BMP280;9663;48.996;8.334;2023-05-10T01:00:32;99708.84;;;19.29
19061;BMP280;9663;48.996;8.334;2023-05-10T01:02:58;99706.28;;;19.29
19061;BMP280;9663;48.996;8.334;2023-05-10T01:05:25;99710.56;;;19.29
19061;BMP280;9663;48.996;8.334;2023-05-10T01:07:52;99710.50;;;19.30
19061;BMP280;9663;48.996;8.334;2023-05-10T01:10:18;99709.63;;;19.31
19061;BMP280;9663;48.996;8.334;2023-05-10T01:12:46;99702.66;;;19.33
19061;BMP280;9663;48.996;8.334;2023-05-10T01:15:14;99704.34;;;19.34
19061;BMP280;9663;48.996;8.334;2023-05-10T01:17:44;99702.50;;;19.36
19061;BMP280;9663;48.996;8.334;2023-05-10T01:20:12;99712.13;;;19.33
19061;BMP280;9663;48.996;8.334;2023-05-10T01:26:18;99702.25;;;19.24
19061;BMP280;9663;48.996;8.334;2023-05-10T01:32:18;99704.34;;;19.16
19061;BMP280;9663;48.996;8.334;2023-05-10T01:34:56;99705.13;;;19.18
19061;BMP280;9663;48.996;8.334;2023-05-10T01:40:35;99707.91;;;19.14
19061;BMP280;9663;48.996;8.334;2023-05-10T01:43:08;99703.44;;;19.17
19061;BMP280;9663;48.996;8.334;2023-05-10T01:45:49;99706.84;;;19.18
19061;BMP280;9663;48.996;8.334;2023-05-10T01:48:15;99701.63;;;19.19
19061;BMP280;9663;48.996;8.334;2023-05-10T01:50:45;99706.72;;;19.21
19061;BMP280;9663;48.996;8.334;2023-05-10T01:53:13;99703.19;;;19.23
19061;BMP280;9663;48.996;8.334;2023-05-10T01:55:51;99709.00;;;19.27
19061;BMP280;9663;48.996;8.334;2023-05-10T01:58:23;99713.22;;;19.27
19061;BMP280;9663;48.996;8.334;2023-05-10T02:00:52;99712.31;;;19.28
19061;BMP280;9663;48.996;8.334;2023-05-10T02:03:23;99723.34;;;19.30
19061;BMP280;9663;48.996;8.334;2023-05-10T02:05:52;99721.59;;;19.31
19061;BMP280;9663;48.996;8.334;2023-05-10T02:08:20;99717.25;;;19.33
19061;BMP280;9663;48.996;8.334;2023-05-10T02:10:50;99714.63;;;19.34
19061;BMP280;9663;48.996;8.334;2023-05-10T02:13:18;99714.44;;;19.37
19061;BMP280;9663;48.996;8.334;2023-05-10T02:15:48;99712.72;;;19.38
19061;BMP280;9663;48.996;8.334;2023-05-10T02:18:15;99719.50;;;19.39
19061;BMP280;9663;48.996;8.334;2023-05-10T02:20:45;99717.94;;;19.36
19061;BMP280;9663;48.996;8.334;2023-05-10T02:23:13;99720.50;;;19.36
19061;BMP280;9663;48.996;8.334;2023-05-10T02:25:42;99721.25;;;19.38
19061;BMP280;9663;48.996;8.334;2023-05-10T02:28:10;99727.22;;;19.39
19061;BMP280;9663;48.996;8.334;2023-05-10T02:30:37;99731.47;;;19.40
19061;BMP280;9663;48.996;8.334;2023-05-10T02:33:05;99737.50;;;19.39
19061;BMP280;9663;48.996;8.334;2023-05-10T02:35:32;99727.22;;;19.39
19061;BMP280;9663;48.996;8.334;2023-05-10T02:37:59;99735.94;;;19.36
19061;BMP280;9663;48.996;8.334;2023-05-10T02:40:27;99736.81;;;19.35
19061;BMP280;9663;48.996;8.334;2023-05-10T02:42:56;99727.53;;;19.33
19061;BMP280;9663;48.996;8.334;2023-05-10T02:45:28;99736.06;;;19.33
19061;BMP280;9663;48.996;8.334;2023-05-10T02:47:56;99727.59;;;19.31
19061;BMP280;9663;48.996;8.334;2023-05-10T02:50:25;99724.28;;;19.29
19061;BMP280;9663;48.996;8.334;2023-05-10T02:52:59;99725.09;;;19.30
19061;BMP280;9663;48.996;8.334;2023-05-10T02:55:32;99724.28;;;19.29
19061;BMP280;9663;48.996;8.334;2023-05-10T02:58:02;99724.34;;;19.28
19061;BMP280;9663;48.996;8.334;2023-05-10T03:00:30;99727.88;;;19.26
19061;BMP280;9663;48.996;8.334;2023-05-10T03:02:56;99726.38;;;19.22
19061;BMP280;9663;48.996;8.334;2023-05-10T03:05:22;99728.19;;;19.20
19061;BMP280;9663;48.996;8.334;2023-05-10T03:07:49;99729.34;;;19.13
19061;BMP280;9663;48.996;8.334;2023-05-10T03:10:15;99725.41;;;19.06
19061;BMP280;9663;48.996;8.334;2023-05-10T03:15:47;99730.53;;;18.87
19061;BMP280;9663;48.996;8.334;2023-05-10T03:18:23;99735.06;;;18.83
19061;BMP280;9663;48.996;8.334;2023-05-10T03:21:03;99736.88;;;18.81
19061;BMP280;9663;48.996;8.334;2023-05-10T03:23:51;99742.25;;;18.75
19061;BMP280;9663;48.996;8.334;2023-05-10T03:26:24;99734.69;;;18.72
19061;BMP280;9663;48.996;8.334;2023-05-10T03:28:53;99744.22;;;18.70
19061;BMP280;9663;48.996;8.334;2023-05-10T03:31:20;99750.16;;;18.70
19061;BMP280;9663;48.996;8.334;2023-05-10T03:33:51;99758.84;;;18.68
19061;BMP280;9663;48.996;8.334;2023-05-10T03:36:18;99760.59;;;18.67
19061;BMP280;9663;48.996;8.334;2023-05-10T03:38:44;99759.69;;;18.68
19061;BMP280;9663;48.996;8.334;2023-05-10T03:41:09;99761.38;;;18.69
19061;BMP280;9663;48.996;8.334;2023-05-10T03:43:35;99762.13;;;18.71
19061;BMP280;9663;48.996;8.334;2023-05-10T03:46:03;99776.47;;;18.75
19061;BMP280;9663;48.996;8.334;2023-05-10T03:48:29;99767.13;;;18.74
19061;BMP280;9663;48.996;8.334;2023-05-10T03:50:55;99776.41;;;18.77
19061;BMP280;9663;48.996;8.334;2023-05-10T03:53:21;99783.16;;;18.79
19061;BMP280;9663;48.996;8.334;2023-05-10T03:55:47;99777.19;;;18.79
19061;BMP280;9663;48.996;8.334;2023-05-10T03:58:13;99771.16;;;18.80
19061;BMP280;9663;48.996;8.334;2023-05-10T04:00:39;99777.13;;;18.80
19061;BMP280;9663;48.996;8.334;2023-05-10T04:03:09;99781.28;;;18.83
19061;BMP280;9663;48.996;8.334;2023-05-10T04:05:36;99778.66;;;18.84
19061;BMP280;9663;48.996;8.334;2023-05-10T04:08:02;99780.25;;;18.86
19061;BMP280;9663;48.996;8.334;2023-05-10T04:10:28;99781.91;;;18.87
19061;BMP280;9663;48.996;8.334;2023-05-10T04:12:54;99782.69;;;18.89
19061;BMP280;9663;48.996;8.334;2023-05-10T04:15:20;99785.19;;;18.91
19061;BMP280;9663;48.996;8.334;2023-05-10T04:17:46;99781.50;;;18.96
19061;BMP280;9663;48.996;8.334;2023-05-10T04:20:13;99784.00;;;18.98
19061;BMP280;9663;48.996;8.334;2023-05-10T04:22:39;99785.66;;;19.00
19061;BMP280;9663;48.996;8.334;2023-05-10T04:25:05;99786.34;;;19.04
19061;BMP280;9663;48.996;8.334;2023-05-10T04:27:31;99796.50;;;19.07
19061;BMP280;9663;48.996;8.334;2023-05-10T04:29:57;99790.50;;;19.06
19061;BMP280;9663;48.996;8.334;2023-05-10T04:32:23;99787.72;;;19.11
19061;BMP280;9663;48.996;8.334;2023-05-10T04:34:49;99790.97;;;19.14
19061;BMP280;9663;48.996;8.334;2023-05-10T04:37:17;99787.38;;;19.18
19061;BMP280;9663;48.996;8.334;2023-05-10T04:39:43;99788.16;;;19.20
19061;BMP280;9663;48.996;8.334;2023-05-10T04:42:09;99789.72;;;19.23
19061;BMP280;9663;48.996;8.334;2023-05-10T04:44:35;99798.97;;;19.27
19061;BMP280;9663;48.996;8.334;2023-05-10T04:47:01;99796.19;;;19.31
19061;BMP280;9663;48.996;8.334;2023-05-10T04:49:28;99797.84;;;19.32
19061;BMP280;9663;48.996;8.334;2023-05-10T04:51:54;99797.72;;;19.35
19061;BMP280;9663;48.996;8.334;2023-05-10T04:54:19;99785.63;;;19.37
19061;BMP280;9663;48.996;8.334;2023-05-10T04:56:45;99789.63;;;19.42
19061;BMP280;9663;48.996;8.334;2023-05-10T04:59:11;99787.84;;;19.44
19061;BMP280;9663;48.996;8.334;2023-05-10T05:01:36;99783.31;;;19.49
19061;BMP280;9663;48.996;8.334;2023-05-10T05:04:02;99784.81;;;19.53
19061;BMP280;9663;48.996;8.334;2023-05-10T05:06:28;99785.56;;;19.55
19061;BMP280;9663;48.996;8.334;2023-05-10T05:08:54;99777.94;;;19.54
19061;BMP280;9663;48.996;8.334;2023-05-10T05:11:20;99785.72;;;19.52
19061;BMP280;9663;48.996;8.334;2023-05-10T05:13:46;99791.78;;;19.51
19061;BMP280;9663;48.996;8.334;2023-05-10T05:16:12;99785.81;;;19.51
19061;BMP280;9663;48.996;8.334;2023-05-10T05:18:38;99790.09;;;19.50
19061;BMP280;9663;48.996;8.334;2023-05-10T05:21:14;99801.25;;;19.51
19061;BMP280;9663;48.996;8.334;2023-05-10T05:23:40;99806.22;;;19.54
19061;BMP280;9663;48.996;8.334;2023-05-10T05:26:06;99808.72;;;19.55
19061;BMP280;9663;48.996;8.334;2023-05-10T05:28:32;99800.03;;;19.58
19061;BMP280;9663;48.996;8.334;2023-05-10T05:31:00;99810.25;;;19.59
19061;BMP280;9663;48.996;8.334;2023-05-10T05:33:25;99800.03;;;19.58
19061;BMP280;9663;48.996;8.334;2023-05-10T05:35:51;99809.19;;;19.63
19061;BMP280;9663;48.996;8.334;2023-05-10T05:38:17;99803.09;;;19.66
19061;BMP280;9663;48.996;8.334;2023-05-10T05:40:43;99808.84;;;19.70
19061;BMP280;9663;48.996;8.334;2023-05-10T05:43:08;99806.91;;;19.75
19061;BMP280;9663;48.996;8.334;2023-05-10T05:45:34;99798.19;;;19.78
19061;BMP280;9663;48.996;8.334;2023-05-10T05:48:00;99813.41;;;19.82
19061;BMP280;9663;48.996;8.334;2023-05-10T05:50:25;99815.88;;;19.85
19061;BMP280;9663;48.996;8.334;2023-05-10T05:52:51;99817.44;;;19.88
19061;BMP280;9663;48.996;8.334;2023-05-10T05:55:17;99826.00;;;19.88
19061;BMP280;9663;48.996;8.334;2023-05-10T05:57:43;99826.84;;;19.89
19061;BMP280;9663;48.996;8.334;2023-05-10T06:00:09;99837.00;;;19.92
19061;BMP280;9663;48.996;8.334;2023-05-10T06:02:34;99832.75;;;19.91
19061;BMP280;9663;48.996;8.334;2023-05-10T06:05:00;99843.03;;;19.91
19061;BMP280;9663;48.996;8.334;2023-05-10T06:07:26;99841.28;;;19.91
19061;BMP280;9663;48.996;8.334;2023-05-10T06:09:52;99848.13;;;19.92
19061;BMP280;9663;48.996;8.334;2023-05-10T06:12:17;99839.31;;;19.96
19061;BMP280;9663;48.996;8.334;2023-05-10T06:14:43;99847.66;;;20.01
19061;BMP280;9663;48.996;8.334;2023-05-10T06:17:09;99851.84;;;20.04
19061;BMP280;9663;48.996;8.334;2023-05-10T06:19:34;99856.16;;;20.03
19061;BMP280;9663;48.996;8.334;2023-05-10T06:22:01;99855.09;;;20.07
19061;BMP280;9663;48.996;8.334;2023-05-10T06:24:27;99862.34;;;20.16
19061;BMP280;9663;48.996;8.334;2023-05-10T06:26:53;99862.81;;;20.24
19061;BMP280;9663;48.996;8.334;2023-05-10T06:29:18;99866.94;;;20.28
19061;BMP280;9663;48.996;8.334;2023-05-10T06:31:44;99860.78;;;20.30
19061;BMP280;9663;48.996;8.334;2023-05-10T06:34:10;99863.97;;;20.35
19061;BMP280;9663;48.996;8.334;2023-05-10T06:36:37;99867.22;;;20.39
19061;BMP280;9663;48.996;8.334;2023-05-10T06:39:02;99868.69;;;20.44
19061;BMP280;9663;48.996;8.334;2023-05-10T06:41:28;99853.72;;;20.51
19061;BMP280;9663;48.996;8.334;2023-05-10T06:43:54;99868.00;;;20.57
19061;BMP280;9663;48.996;8.334;2023-05-10T06:46:20;99859.19;;;20.61
19061;BMP280;9663;48.996;8.334;2023-05-10T06:48:45;99865.78;;;20.67
19061;BMP280;9663;48.996;8.334;2023-05-10T06:51:11;99872.31;;;20.74
19061;BMP280;9663;48.996;8.334;2023-05-10T06:53:37;99875.50;;;20.79
19061;BMP280;9663;48.996;8.334;2023-05-10T06:56:03;99881.09;;;20.87
19061;BMP280;9663;48.996;8.334;2023-05-10T06:58:28;99881.59;;;20.93
19061;BMP280;9663;48.996;8.334;2023-05-10T07:00:54;99879.53;;;20.99
19061;BMP280;9663;48.996;8.334;2023-05-10T07:03:20;99878.47;;;21.03
19061;BMP280;9663;48.996;8.334;2023-05-10T07:05:45;99876.50;;;21.08
19061;BMP280;9663;48.996;8.334;2023-05-10T07:08:11;99877.06;;;21.13
19061;BMP280;9663;48.996;8.334;2023-05-10T07:10:37;99877.66;;;21.18
19061;BMP280;9663;48.996;8.334;2023-05-10T07:13:03;99886.31;;;21.17
19061;BMP280;9663;48.996;8.334;2023-05-10T07:15:28;99884.88;;;21.12
19061;BMP280;9663;48.996;8.334;2023-05-10T07:17:54;99877.31;;;21.09
19061;BMP280;9663;48.996;8.334;2023-05-10T07:20:20;99877.31;;;21.09
19061;BMP280;9663;48.996;8.334;2023-05-10T07:22:46;99881.88;;;21.04
19061;BMP280;9663;48.996;8.334;2023-05-10T07:25:12;99883.72;;;21.02
19061;BMP280;9663;48.996;8.334;2023-05-10T07:27:37;99888.94;;;21.00
19061;BMP280;9663;48.996;8.334;2023-05-10T07:30:03;99891.44;;;21.02
19061;BMP280;9663;48.996;8.334;2023-05-10T07:32:29;99888.94;;;21.00
19061;BMP280;9663;48.996;8.334;2023-05-10T07:34:56;99885.53;;;21.00
19061;BMP280;9663;48.996;8.334;2023-05-10T07:37:21;99884.69;;;20.99
19061;BMP280;9663;48.996;8.334;2023-05-10T07:39:47;99890.44;;;21.04
19061;BMP280;9663;48.996;8.334;2023-05-10T07:42:12;99896.03;;;21.12
19061;BMP280;9663;48.996;8.334;2023-05-10T07:44:38;99896.53;;;21.19
19061;BMP280;9663;48.996;8.334;2023-05-10T07:47:04;99893.88;;;21.20
19061;BMP280;9663;48.996;8.334;2023-05-10T07:49:30;99898.06;;;21.23
19061;BMP280;9663;48.996;8.334;2023-05-10T07:51:55;99893.38;;;21.29
19061;BMP280;9663;48.996;8.334;2023-05-10T07:54:21;99892.41;;;21.32
19061;BMP280;9663;48.996;8.334;2023-05-10T07:56:47;99888.75;;;21.36
19061;BMP280;9663;48.996;8.334;2023-05-10T07:59:17;99907.25;;;21.43
19061;BMP280;9663;48.996;8.334;2023-05-10T08:01:44;99893.03;;;21.52
19061;BMP280;9663;48.996;8.334;2023-05-10T08:04:10;99892.31;;;21.65
19061;BMP280;9663;48.996;8.334;2023-05-10T08:06:35;99897.63;;;21.78
19061;BMP280;9663;48.996;8.334;2023-05-10T08:09:01;99899.38;;;21.92
19061;BMP280;9663;48.996;8.334;2023-05-10T08:11:27;99897.53;;;22.10
19061;BMP280;9663;48.996;8.334;2023-05-10T08:13:53;99895.59;;;22.29
19061;BMP280;9663;48.996;8.334;2023-05-10T08:16:20;99905.09;;;22.57
19061;BMP280;9663;48.996;8.334;2023-05-10T08:18:46;99896.72;;;22.81
19061;BMP280;9663;48.996;8.334;2023-05-10T08:21:13;99894.19;;;22.95
19061;BMP280;9663;48.996;8.334;2023-05-10T08:23:39;99901.22;;;23.07
19061;BMP280;9663;48.996;8.334;2023-05-10T08:26:05;99905.72;;;23.17
19061;BMP280;9663;48.996;8.334;2023-05-10T08:28:31;99906.28;;;23.22
19061;BMP280;9663;48.996;8.334;2023-05-10T08:30:56;99908.69;;;23.25
19061;BMP280;9663;48.996;8.334;2023-05-10T08:33:22;99901.56;;;23.29
19061;BMP280;9663;48.996;8.334;2023-05-10T08:35:48;99894.91;;;23.39
19061;BMP280;9663;48.996;8.334;2023-05-10T08:38:14;99897.13;;;23.45
19061;BMP280;9663;48.996;8.334;2023-05-10T08:40:42;99901.56;;;23.43
19061;BMP280;9663;48.996;8.334;2023-05-10T08:43:12;99915.28;;;23.31
19061;BMP280;9663;48.996;8.334;2023-05-10T08:45:43;99909.41;;;23.27
19061;BMP280;9663;48.996;8.334;2023-05-10T08:48:11;99914.81;;;23.24
19061;BMP280;9663;48.996;8.334;2023-05-10T08:50:40;99912.94;;;23.26
19061;BMP280;9663;48.996;8.334;2023-05-10T08:53:11;99914.50;;;23.29
19061;BMP280;9663;48.996;8.334;2023-05-10T08:55:38;99907.69;;;23.28
19061;BMP280;9663;48.996;8.334;2023-05-10T08:58:08;99914.72;;;23.26
19061;BMP280;9663;48.996;8.334;2023-05-10T09:00:35;99923.09;;;23.16
19061;BMP280;9663;48.996;8.334;2023-05-10T09:03:04;99920.59;;;23.00
19061;BMP280;9663;48.996;8.334;2023-05-10T09:05:30;99933.16;;;22.92
19061;BMP280;9663;48.996;8.334;2023-05-10T09:07:56;99921.41;;;22.87
19061;BMP280;9663;48.996;8.334;2023-05-10T09:10:23;99927.38;;;22.87
19061;BMP280;9663;48.996;8.334;2023-05-10T09:12:51;99928.69;;;22.80
19061;BMP280;9663;48.996;8.334;2023-05-10T09:15:18;99941.38;;;22.70
19061;BMP280;9663;48.996;8.334;2023-05-10T09:17:46;99953.34;;;22.57
19061;BMP280;9663;48.996;8.334;2023-05-10T09:20:11;99945.38;;;22.46
19061;BMP280;9663;48.996;8.334;2023-05-10T09:22:37;99949.06;;;22.42
19061;BMP280;9663;48.996;8.334;2023-05-10T09:25:15;99950.81;;;22.41
19061;BMP280;9663;48.996;8.334;2023-05-10T09:27:45;99952.03;;;22.50
19061;BMP280;9663;48.996;8.334;2023-05-10T09:30:29;99954.63;;;22.50
19061;BMP280;9663;48.996;8.334;2023-05-10T09:32:57;99959.38;;;22.57
19061;BMP280;9663;48.996;8.334;2023-05-10T09:35:29;99966.84;;;22.62
19061;BMP280;9663;48.996;8.334;2023-05-10T09:37:58;99966.09;;;22.60
19061;BMP280;9663;48.996;8.334;2023-05-10T09:40:27;99961.88;;;22.59
19061;BMP280;9663;48.996;8.334;2023-05-10T09:43:01;99954.75;;;22.62
19061;BMP280;9663;48.996;8.334;2023-05-10T09:45:32;99969.25;;;22.65
19061;BMP280;9663;48.996;8.334;2023-05-10T09:48:00;99966.72;;;22.78
19061;BMP280;9663;48.996;8.334;2023-05-10T09:50:27;99970.94;;;22.95
19061;BMP280;9663;48.996;8.334;2023-05-10T09:52:59;99962.19;;;23.11
19061;BMP280;9663;48.996;8.334;2023-05-10T09:55:38;99958.50;;;23.29
19061;BMP280;9663;48.996;8.334;2023-05-10T09:58:04;99962.19;;;23.53
19061;BMP280;9663;48.996;8.334;2023-05-10T10:00:45;99969.28;;;23.91
19061;BMP280;9663;48.996;8.334;2023-05-10T10:03:19;99969.84;;;24.22
19061;BMP280;9663;48.996;8.334;2023-05-10T10:05:47;99961.13;;;24.37
19061;BMP280;9663;48.996;8.334;2023-05-10T10:08:15;99969.16;;;24.46
19061;BMP280;9663;48.996;8.334;2023-05-10T10:10:41;99969.78;;;24.49
19061;BMP280;9663;48.996;8.334;2023-05-10T10:13:09;99964.34;;;24.40
19061;BMP280;9663;48.996;8.334;2023-05-10T10:15:35;99975.97;;;24.35
19061;BMP280;9663;48.996;8.334;2023-05-10T10:18:02;99973.81;;;24.27
19061;BMP280;9663;48.996;8.334;2023-05-10T10:20:29;99968.75;;;24.26
19061;BMP280;9663;48.996;8.334;2023-05-10T10:22:55;99971.81;;;24.18
19061;BMP280;9663;48.996;8.334;2023-05-10T10:25:22;99971.00;;;24.18
19061;BMP280;9663;48.996;8.334;2023-05-10T10:30:50;99979.31;;;24.23
19061;BMP280;9663;48.996;8.334;2023-05-10T10:36:16;99964.50;;;24.51
19061;BMP280;9663;48.996;8.334;2023-05-10T10:41:35;99986.59;;;24.56
19061;BMP280;9663;48.996;8.334;2023-05-10T10:44:34;99961.81;;;24.52
19061;BMP280;9663;48.996;8.334;2023-05-10T10:47:02;99983.81;;;24.59
19061;BMP280;9663;48.996;8.334;2023-05-10T10:52:40;99993.13;;;24.49
19061;BMP280;9663;48.996;8.334;2023-05-10T10:55:19;99992.47;;;24.46
19061;BMP280;9663;48.996;8.334;2023-05-10T10:57:56;99994.34;;;24.44
19061;BMP280;9663;48.996;8.334;2023-05-10T11:00:38;99994.44;;;24.43
19061;BMP280;9663;48.996;8.334;2023-05-10T11:03:11;99987.72;;;24.52
19061;BMP280;9663;48.996;8.334;2023-05-10T11:05:49;99984.28;;;24.78
19061;BMP280;9663;48.996;8.334;2023-05-10T11:08:29;99986.44;;;24.98
19061;BMP280;9663;48.996;8.334;2023-05-10T11:13:37;99979.69;;;25.08
19061;BMP280;9663;48.996;8.334;2023-05-10T11:16:22;99975.69;;;24.90
19061;BMP280;9663;48.996;8.334;2023-05-10T11:19:03;99982.88;;;24.60
19061;BMP280;9663;48.996;8.334;2023-05-10T11:21:33;99994.91;;;24.35
19061;BMP280;9663;48.996;8.334;2023-05-10T11:24:01;99982.00;;;24.21
19061;BMP280;9663;48.996;8.334;2023-05-10T11:26:34;99979.69;;;24.17
19061;BMP280;9663;48.996;8.334;2023-05-10T11:29:01;99983.19;;;24.16
19061;BMP280;9663;48.996;8.334;2023-05-10T11:31:28;99981.63;;;24.13
19061;BMP280;9663;48.996;8.334;2023-05-10T11:33:57;99982.78;;;24.09
19061;BMP280;9663;48.996;8.334;2023-05-10T11:36:25;99978.59;;;24.07
19061;BMP280;9663;48.996;8.334;2023-05-10T11:38:52;99982.97;;;24.06
19061;BMP280;9663;48.996;8.334;2023-05-10T11:41:19;99988.88;;;24.08
19061;BMP280;9663;48.996;8.334;2023-05-10T11:43:50;99989.41;;;24.13
19061;BMP280;9663;48.996;8.334;2023-05-10T11:46:20;99989.13;;;24.18
19061;BMP280;9663;48.996;8.334;2023-05-10T11:48:52;99980.50;;;24.17
19061;BMP280;9663;48.996;8.334;2023-05-10T11:51:23;99999.22;;;24.08
19061;BMP280;9663;48.996;8.334;2023-05-10T11:53:52;99993.88;;;23.98
19061;BMP280;9663;48.996;8.334;2023-05-10T11:56:19;99994.28;;;23.92
19061;BMP280;9663;48.996;8.334;2023-05-10T11:58:52;100002.03;;;23.92
19061;BMP280;9663;48.996;8.334;2023-05-10T12:01:18;99995.66;;;23.97
19061;BMP280;9663;48.996;8.334;2023-05-10T12:03:44;100003.19;;;24.14
19061;BMP280;9663;48.996;8.334;2023-05-10T12:06:10;99992.97;;;24.39
19061;BMP280;9663;48.996;8.334;2023-05-10T12:08:36;99978.88;;;24.81
19061;BMP280;9663;48.996;8.334;2023-05-10T12:11:08;100001.06;;;25.24
19061;BMP280;9663;48.996;8.334;2023-05-10T12:13:40;99983.91;;;25.58
19061;BMP280;9663;48.996;8.334;2023-05-10T12:16:15;99989.09;;;25.83
19061;BMP280;9663;48.996;8.334;2023-05-10T12:18:41;99978.16;;;26.03
19061;BMP280;9663;48.996;8.334;2023-05-10T12:21:11;99985.06;;;26.15
19061;BMP280;9663;48.996;8.334;2023-05-10T12:23:39;99982.38;;;26.39
19061;BMP280;9663;48.996;8.334;2023-05-10T12:26:05;99985.66;;;26.54
19061;BMP280;9663;48.996;8.334;2023-05-10T12:28:33;99990.28;;;26.61
19061;BMP280;9663;48.996;8.334;2023-05-10T12:31:02;99986.06;;;26.71
19061;BMP280;9663;48.996;8.334;2023-05-10T12:33:40;99993.09;;;26.81
19061;BMP280;9663;48.996;8.334;2023-05-10T12:36:23;99989.97;;;27.00
19061;BMP280;9663;48.996;8.334;2023-05-10T12:38:49;99985.50;;;27.23
19061;BMP280;9663;48.996;8.334;2023-05-10T12:41:17;99979.38;;;27.24
19061;BMP280;9663;48.996;8.334;2023-05-10T12:43:44;99975.22;;;27.11
19061;BMP280;9663;48.996;8.334;2023-05-10T12:46:16;99977.84;;;27.33
19061;BMP280;9663;48.996;8.334;2023-05-10T12:48:44;99985.69;;;27.65
19061;BMP280;9663;48.996;8.334;2023-05-10T12:51:10;99982.09;;;27.99
19061;BMP280;9663;48.996;8.334;2023-05-10T12:53:42;99972.84;;;28.48
19061;BMP280;9663;48.996;8.334;2023-05-10T12:56:08;99978.63;;;28.62
19061;BMP280;9663;48.996;8.334;2023-05-10T12:58:34;99967.09;;;28.65
19061;BMP280;9663;48.996;8.334;2023-05-10T13:01:00;99963.56;;;28.55
19061;BMP280;9663;48.996;8.334;2023-05-10T13:03:26;99967.75;;;28.15
19061;BMP280;9663;48.996;8.334;2023-05-10T13:05:52;99959.88;;;27.73
19061;BMP280;9663;48.996;8.334;2023-05-10T13:08:17;99973.28;;;27.47
19061;BMP280;9663;48.996;8.334;2023-05-10T13:10:44;99973.56;;;27.32
19061;BMP280;9663;48.996;8.334;2023-05-10T13:13:09;99969.44;;;27.29
19061;BMP280;9663;48.996;8.334;2023-05-10T13:15:35;99965.41;;;27.36
19061;BMP280;9663;48.996;8.334;2023-05-10T13:18:03;99967.09;;;27.59
19061;BMP280;9663;48.996;8.334;2023-05-10T13:20:28;99971.34;;;27.71
19061;BMP280;9663;48.996;8.334;2023-05-10T13:22:54;99974.44;;;27.76
19061;BMP280;9663;48.996;8.334;2023-05-10T13:25:20;99958.78;;;27.76
19061;BMP280;9663;48.996;8.334;2023-05-10T13:27:45;99961.75;;;27.71
19061;BMP280;9663;48.996;8.334;2023-05-10T13:30:11;99958.59;;;27.57
19061;BMP280;9663;48.996;8.334;2023-05-10T13:32:38;99964.47;;;27.37
19061;BMP280;9663;48.996;8.334;2023-05-10T13:35:05;99970.13;;;27.09
19061;BMP280;9663;48.996;8.334;2023-05-10T13:37:32;99972.38;;;26.80
19061;BMP280;9663;48.996;8.334;2023-05-10T13:40:01;99973.63;;;26.64
19061;BMP280;9663;48.996;8.334;2023-05-10T13:42:27;99968.53;;;26.62
19061;BMP280;9663;48.996;8.334;2023-05-10T13:44:53;99959.88;;;26.62
19061;BMP280;9663;48.996;8.334;2023-05-10T13:47:19;99964.28;;;26.61
19061;BMP280;9663;48.996;8.334;2023-05-10T13:49:47;99968.88;;;26.58
19061;BMP280;9663;48.996;8.334;2023-05-10T13:52:12;99968.44;;;26.40
19061;BMP280;9663;48.996;8.334;2023-05-10T13:54:39;99966.16;;;26.13
19061;BMP280;9663;48.996;8.334;2023-05-10T13:57:05;99962.91;;;25.86
19061;BMP280;9663;48.996;8.334;2023-05-10T13:59:32;99958.38;;;25.65
19061;BMP280;9663;48.996;8.334;2023-05-10T14:02:00;99964.94;;;25.45
19061;BMP280;9663;48.996;8.334;2023-05-10T14:04:29;99972.94;;;25.30
19061;BMP280;9663;48.996;8.334;2023-05-10T14:06:56;99953.22;;;25.15
19061;BMP280;9663;48.996;8.334;2023-05-10T14:09:22;99957.66;;;25.01
19061;BMP280;9663;48.996;8.334;2023-05-10T14:11:48;99951.84;;;24.97
19061;BMP280;9663;48.996;8.334;2023-05-10T14:14:13;99951.66;;;25.00
19061;BMP280;9663;48.996;8.334;2023-05-10T14:16:44;99951.75;;;25.11
19061;BMP280;9663;48.996;8.334;2023-05-10T14:19:11;99949.34;;;25.21
19061;BMP280;9663;48.996;8.334;2023-05-10T14:21:37;99940.41;;;25.37
19061;BMP280;9663;48.996;8.334;2023-05-10T14:24:03;99949.13;;;25.61
19061;BMP280;9663;48.996;8.334;2023-05-10T14:26:28;99949.88;;;26.21
19061;BMP280;9663;48.996;8.334;2023-05-10T14:28:54;99938.50;;;27.14
19061;BMP280;9663;48.996;8.334;2023-05-10T14:31:20;99928.28;;;28.20
19061;BMP280;9663;48.996;8.334;2023-05-10T14:33:49;99923.00;;;29.02
19061;BMP280;9663;48.996;8.334;2023-05-10T14:36:15;99920.97;;;29.74
19061;BMP280;9663;48.996;8.334;2023-05-10T14:38:41;99918.00;;;30.37
19061;BMP280;9663;48.996;8.334;2023-05-10T14:41:06;99910.06;;;31.02
19061;BMP280;9663;48.996;8.334;2023-05-10T14:43:32;99908.66;;;31.53
19061;BMP280;9663;48.996;8.334;2023-05-10T14:45:58;99908.19;;;31.85
19061;BMP280;9663;48.996;8.334;2023-05-10T14:48:24;99914.84;;;32.06
19061;BMP280;9663;48.996;8.334;2023-05-10T14:50:50;99911.31;;;32.32
19061;BMP280;9663;48.996;8.334;2023-05-10T14:53:18;99910.28;;;32.42